sensor_id;sensor_type;location;lat;lon;timestamp;P1;durP1;ratioP1;P2;durP2;ratioP2
74632;SDS011;63139;52.018;8.552;2024-02-15T00:00:02;15.18;;;11.93;;
74632;SDS011;63139;52.018;8.552;2024-02-15T00:02:33;16.13;;;12.45;;
74632;SDS011;63139;52.018;8.552;2024-02-15T00:05:01;15.20;;;11.98;;
74632;SDS011;63139;52.018;8.552;2024-02-15T00:07:31;17.17;;;13.10;;
74632;SDS011;63139;52.018;8.552;2024-02-15T00:10:01;17.25;;;13.73;;
74632;SDS011;63139;52.018;8.552;2024-02-15T00:12:29;16.90;;;12.65;;
74632;SDS011;63139;52.018;8.552;2024-02-15T00:14:57;13.82;;;11.25;;
74632;SDS011;63139;52.018;8.552;2024-02-15T00:17:25;14.45;;;11.48;;
74632;SDS011;63139;52.018;8.552;2024-02-15T00:19:55;14.48;;;10.95;;
74632;SDS011;63139;52.018;8.552;2024-02-15T00:22:23;15.20;;;11.05;;
74632;SDS011;63139;52.018;8.552;2024-02-15T00:24:53;16.05;;;11.82;;
74632;SDS011;63139;52.018;8.552;2024-02-15T00:27:21;15.63;;;11.95;;
74632;SDS011;63139;52.018;8.552;2024-02-15T00:29:48;18.33;;;12.32;;
74632;SDS011;63139;52.018;8.552;2024-02-15T00:32:16;17.40;;;13.20;;
74632;SDS011;63139;52.018;8.552;2024-02-15T00:34:44;15.63;;;11.63;;
74632;SDS011;63139;52.018;8.552;2024-02-15T00:37:13;14.98;;;11.73;;
74632;SDS011;63139;52.018;8.552;2024-02-15T00:39:41;14.85;;;10.88;;
74632;SDS011;63139;52.018;8.552;2024-02-15T00:42:10;16.08;;;12.15;;
74632;SDS011;63139;52.018;8.552;2024-02-15T00:44:39;17.58;;;12.80;;
74632;SDS011;63139;52.018;8.552;2024-02-15T00:47:09;18.52;;;13.65;;
74632;SDS011;63139;52.018;8.552;2024-02-15T00:49:38;16.40;;;12.43;;
74632;SDS011;63139;52.018;8.552;2024-02-15T00:52:06;14.23;;;11.75;;
74632;SDS011;63139;52.018;8.552;2024-02-15T00:54:35;15.32;;;11.18;;
74632;SDS011;63139;52.018;8.552;2024-02-15T00:57:03;14.30;;;11.07;;
74632;SDS011;63139;52.018;8.552;2024-02-15T00:59:33;19.00;;;12.98;;
74632;SDS011;63139;52.018;8.552;2024-02-15T01:02:02;16.67;;;12.25;;
74632;SDS011;63139;52.018;8.552;2024-02-15T01:04:31;18.27;;;12.32;;
74632;SDS011;63139;52.018;8.552;2024-02-15T01:07:13;17.70;;;12.23;;
74632;SDS011;63139;52.018;8.552;2024-02-15T01:09:40;15.68;;;11.93;;
74632;SDS011;63139;52.018;8.552;2024-02-15T01:12:08;19.08;;;13.77;;
74632;SDS011;63139;52.018;8.552;2024-02-15T01:14:38;16.90;;;12.73;;
74632;SDS011;63139;52.018;8.552;2024-02-15T01:17:06;16.73;;;12.77;;
74632;SDS011;63139;52.018;8.552;2024-02-15T01:19:33;17.65;;;13.52;;
74632;SDS011;63139;52.018;8.552;2024-02-15T01:22:01;17.65;;;12.88;;
74632;SDS011;63139;52.018;8.552;2024-02-15T01:24:29;17.63;;;13.45;;
74632;SDS011;63139;52.018;8.552;2024-02-15T01:26:57;20.25;;;13.20;;
74632;SDS011;63139;52.018;8.552;2024-02-15T01:29:25;20.30;;;14.80;;
74632;SDS011;63139;52.018;8.552;2024-02-15T01:31:55;18.77;;;13.82;;
74632;SDS011;63139;52.018;8.552;2024-02-15T01:34:23;18.40;;;12.60;;
74632;SDS011;63139;52.018;8.552;2024-02-15T01:36:51;18.30;;;13.32;;
74632;SDS011;63139;52.018;8.552;2024-02-15T01:39:19;21.55;;;13.77;;
74632;SDS011;63139;52.018;8.552;2024-02-15T01:41:47;16.40;;;12.55;;
74632;SDS011;63139;52.018;8.552;2024-02-15T01:44:17;18.15;;;13.30;;
74632;SDS011;63139;52.018;8.552;2024-02-15T01:46:46;17.88;;;12.27;;
74632;SDS011;63139;52.018;8.552;2024-02-15T01:49:17;17.63;;;12.23;;
74632;SDS011;63139;52.018;8.552;2024-02-15T01:51:45;18.10;;;13.07;;
74632;SDS011;63139;52.018;8.552;2024-02-15T01:54:15;16.77;;;12.30;;
74632;SDS011;63139;52.018;8.552;2024-02-15T01:56:44;18.27;;;12.52;;
74632;SDS011;63139;52.018;8.552;2024-02-15T01:59:13;17.88;;;12.73;;
74632;SDS011;63139;52.018;8.552;2024-02-15T02:01:43;16.83;;;12.60;;
74632;SDS011;63139;52.018;8.552;2024-02-15T02:04:12;15.23;;;11.48;;
74632;SDS011;63139;52.018;8.552;2024-02-15T02:06:41;17.73;;;11.45;;
74632;SDS011;63139;52.018;8.552;2024-02-15T02:09:10;15.18;;;11.13;;
74632;SDS011;63139;52.018;8.552;2024-02-15T02:11:40;20.80;;;12.13;;
74632;SDS011;63139;52.018;8.552;2024-02-15T02:14:09;15.75;;;11.85;;
74632;SDS011;63139;52.018;8.552;2024-02-15T02:16:37;15.85;;;10.88;;
74632;SDS011;63139;52.018;8.552;2024-02-15T02:19:06;15.68;;;12.25;;
74632;SDS011;63139;52.018;8.552;2024-02-15T02:21:36;16.70;;;11.63;;
74632;SDS011;63139;52.018;8.552;2024-02-15T02:24:08;14.75;;;11.23;;
74632;SDS011;63139;52.018;8.552;2024-02-15T02:26:42;15.37;;;12.00;;
74632;SDS011;63139;52.018;8.552;2024-02-15T02:29:10;20.75;;;12.68;;
74632;SDS011;63139;52.018;8.552;2024-02-15T02:31:38;15.63;;;11.13;;
74632;SDS011;63139;52.018;8.552;2024-02-15T02:34:06;17.85;;;12.60;;
74632;SDS011;63139;52.018;8.552;2024-02-15T02:36:36;14.93;;;10.95;;
74632;SDS011;63139;52.018;8.552;2024-02-15T02:39:04;15.00;;;10.82;;
74632;SDS011;63139;52.018;8.552;2024-02-15T02:41:33;13.93;;;10.95;;
74632;SDS011;63139;52.018;8.552;2024-02-15T02:44:03;18.15;;;11.23;;
74632;SDS011;63139;52.018;8.552;2024-02-15T02:46:31;14.10;;;10.50;;
74632;SDS011;63139;52.018;8.552;2024-02-15T02:48:59;18.45;;;12.50;;
74632;SDS011;63139;52.018;8.552;2024-02-15T02:51:27;14.35;;;10.48;;
74632;SDS011;63139;52.018;8.552;2024-02-15T02:53:55;14.98;;;10.70;;
74632;SDS011;63139;52.018;8.552;2024-02-15T02:56:23;15.85;;;10.68;;
74632;SDS011;63139;52.018;8.552;2024-02-15T02:58:51;21.30;;;12.93;;
74632;SDS011;63139;52.018;8.552;2024-02-15T03:01:23;16.65;;;11.98;;
74632;SDS011;63139;52.018;8.552;2024-02-15T03:03:52;17.27;;;12.23;;
74632;SDS011;63139;52.018;8.552;2024-02-15T03:06:21;19.92;;;13.50;;
74632;SDS011;63139;52.018;8.552;2024-02-15T03:08:51;22.65;;;14.95;;
74632;SDS011;63139;52.018;8.552;2024-02-15T03:11:20;19.60;;;13.52;;
74632;SDS011;63139;52.018;8.552;2024-02-15T03:13:49;17.55;;;13.32;;
74632;SDS011;63139;52.018;8.552;2024-02-15T03:16:16;19.45;;;13.13;;
74632;SDS011;63139;52.018;8.552;2024-02-15T03:18:46;18.35;;;13.57;;
74632;SDS011;63139;52.018;8.552;2024-02-15T03:21:15;21.38;;;13.45;;
74632;SDS011;63139;52.018;8.552;2024-02-15T03:23:44;22.90;;;14.68;;
74632;SDS011;63139;52.018;8.552;2024-02-15T03:26:12;23.17;;;14.27;;
74632;SDS011;63139;52.018;8.552;2024-02-15T03:28:40;24.40;;;15.18;;
74632;SDS011;63139;52.018;8.552;2024-02-15T03:31:08;24.20;;;16.30;;
74632;SDS011;63139;52.018;8.552;2024-02-15T03:33:35;24.45;;;16.13;;
74632;SDS011;63139;52.018;8.552;2024-02-15T03:36:05;25.05;;;16.35;;
74632;SDS011;63139;52.018;8.552;2024-02-15T03:38:34;23.25;;;15.73;;
74632;SDS011;63139;52.018;8.552;2024-02-15T03:41:02;23.65;;;15.85;;
74632;SDS011;63139;52.018;8.552;2024-02-15T03:43:32;25.65;;;16.73;;
74632;SDS011;63139;52.018;8.552;2024-02-15T03:46:00;25.73;;;16.60;;
74632;SDS011;63139;52.018;8.552;2024-02-15T03:48:27;26.08;;;17.50;;
74632;SDS011;63139;52.018;8.552;2024-02-15T03:50:55;23.60;;;16.02;;
74632;SDS011;63139;52.018;8.552;2024-02-15T03:53:26;25.58;;;17.38;;
74632;SDS011;63139;52.018;8.552;2024-02-15T03:55:56;27.88;;;17.77;;
74632;SDS011;63139;52.018;8.552;2024-02-15T03:58:24;28.40;;;18.35;;
74632;SDS011;63139;52.018;8.552;2024-02-15T04:00:52;26.85;;;17.23;;
74632;SDS011;63139;52.018;8.552;2024-02-15T04:03:22;25.23;;;16.33;;
74632;SDS011;63139;52.018;8.552;2024-02-15T04:05:50;26.92;;;16.80;;
74632;SDS011;63139;52.018;8.552;2024-02-15T04:08:17;28.27;;;16.63;;
74632;SDS011;63139;52.018;8.552;2024-02-15T04:10:47;24.45;;;16.23;;
74632;SDS011;63139;52.018;8.552;2024-02-15T04:13:18;25.17;;;16.85;;
74632;SDS011;63139;52.018;8.552;2024-02-15T04:15:46;30.45;;;18.10;;
74632;SDS011;63139;52.018;8.552;2024-02-15T04:18:17;27.17;;;17.05;;
74632;SDS011;63139;52.018;8.552;2024-02-15T04:20:45;27.05;;;17.55;;
74632;SDS011;63139;52.018;8.552;2024-02-15T04:23:13;29.60;;;19.45;;
74632;SDS011;63139;52.018;8.552;2024-02-15T04:25:40;29.23;;;17.88;;
74632;SDS011;63139;52.018;8.552;2024-02-15T04:28:11;27.83;;;16.95;;
74632;SDS011;63139;52.018;8.552;2024-02-15T04:30:39;25.95;;;17.67;;
74632;SDS011;63139;52.018;8.552;2024-02-15T04:33:07;26.23;;;17.52;;
74632;SDS011;63139;52.018;8.552;2024-02-15T04:35:36;26.55;;;18.00;;
74632;SDS011;63139;52.018;8.552;2024-02-15T04:38:04;28.55;;;18.35;;
74632;SDS011;63139;52.018;8.552;2024-02-15T04:40:35;23.27;;;15.95;;
74632;SDS011;63139;52.018;8.552;2024-02-15T04:43:04;26.15;;;15.98;;
74632;SDS011;63139;52.018;8.552;2024-02-15T04:45:34;22.50;;;15.48;;
74632;SDS011;63139;52.018;8.552;2024-02-15T04:48:02;26.83;;;16.48;;
74632;SDS011;63139;52.018;8.552;2024-02-15T04:50:31;22.45;;;16.10;;
74632;SDS011;63139;52.018;8.552;2024-02-15T04:52:59;23.55;;;15.13;;
74632;SDS011;63139;52.018;8.552;2024-02-15T04:55:27;21.33;;;14.55;;
74632;SDS011;63139;52.018;8.552;2024-02-15T04:57:57;25.40;;;15.20;;
74632;SDS011;63139;52.018;8.552;2024-02-15T05:00:26;19.75;;;13.93;;
74632;SDS011;63139;52.018;8.552;2024-02-15T05:02:56;21.23;;;14.50;;
74632;SDS011;63139;52.018;8.552;2024-02-15T05:05:25;21.38;;;13.43;;
74632;SDS011;63139;52.018;8.552;2024-02-15T05:07:55;17.52;;;13.10;;
74632;SDS011;63139;52.018;8.552;2024-02-15T05:10:23;17.85;;;13.00;;
74632;SDS011;63139;52.018;8.552;2024-02-15T05:12:51;16.40;;;11.82;;
74632;SDS011;63139;52.018;8.552;2024-02-15T05:15:20;15.23;;;11.30;;
74632;SDS011;63139;52.018;8.552;2024-02-15T05:17:51;16.00;;;11.20;;
74632;SDS011;63139;52.018;8.552;2024-02-15T05:20:22;14.43;;;11.07;;
74632;SDS011;63139;52.018;8.552;2024-02-15T05:22:51;12.60;;;9.70;;
74632;SDS011;63139;52.018;8.552;2024-02-15T05:25:19;13.63;;;10.52;;
74632;SDS011;63139;52.018;8.552;2024-02-15T05:27:52;17.50;;;10.57;;
74632;SDS011;63139;52.018;8.552;2024-02-15T05:30:23;13.77;;;9.52;;
74632;SDS011;63139;52.018;8.552;2024-02-15T05:32:51;13.23;;;9.82;;
74632;SDS011;63139;52.018;8.552;2024-02-15T05:35:22;15.50;;;8.90;;
74632;SDS011;63139;52.018;8.552;2024-02-15T05:37:51;13.43;;;9.60;;
74632;SDS011;63139;52.018;8.552;2024-02-15T05:40:20;13.50;;;9.60;;
74632;SDS011;63139;52.018;8.552;2024-02-15T05:42:48;15.93;;;10.45;;
74632;SDS011;63139;52.018;8.552;2024-02-15T05:45:29;13.45;;;10.10;;
74632;SDS011;63139;52.018;8.552;2024-02-15T05:48:00;12.02;;;8.73;;
74632;SDS011;63139;52.018;8.552;2024-02-15T05:50:30;14.68;;;10.45;;
74632;SDS011;63139;52.018;8.552;2024-02-15T05:52:58;13.80;;;9.57;;
74632;SDS011;63139;52.018;8.552;2024-02-15T05:55:28;14.52;;;10.15;;
74632;SDS011;63139;52.018;8.552;2024-02-15T05:57:57;14.88;;;9.00;;
74632;SDS011;63139;52.018;8.552;2024-02-15T06:00:25;14.35;;;9.45;;
74632;SDS011;63139;52.018;8.552;2024-02-15T06:02:53;12.82;;;8.35;;
74632;SDS011;63139;52.018;8.552;2024-02-15T06:05:22;10.38;;;7.75;;
74632;SDS011;63139;52.018;8.552;2024-02-15T06:07:52;9.27;;;7.65;;
74632;SDS011;63139;52.018;8.552;2024-02-15T06:10:19;11.45;;;7.78;;
74632;SDS011;63139;52.018;8.552;2024-02-15T06:12:47;10.13;;;7.18;;
74632;SDS011;63139;52.018;8.552;2024-02-15T06:15:15;9.68;;;7.05;;
74632;SDS011;63139;52.018;8.552;2024-02-15T06:17:44;9.20;;;6.50;;
74632;SDS011;63139;52.018;8.552;2024-02-15T06:20:13;8.52;;;6.25;;
74632;SDS011;63139;52.018;8.552;2024-02-15T06:22:44;9.48;;;6.72;;
74632;SDS011;63139;52.018;8.552;2024-02-15T06:25:15;9.45;;;7.18;;
74632;SDS011;63139;52.018;8.552;2024-02-15T06:27:47;8.15;;;6.38;;
74632;SDS011;63139;52.018;8.552;2024-02-15T06:30:17;14.13;;;7.25;;
74632;SDS011;63139;52.018;8.552;2024-02-15T06:33:03;10.15;;;6.80;;
74632;SDS011;63139;52.018;8.552;2024-02-15T06:36:04;6.85;;;5.82;;
74632;SDS011;63139;52.018;8.552;2024-02-15T06:38:50;8.80;;;5.75;;
74632;SDS011;63139;52.018;8.552;2024-02-15T06:41:37;7.90;;;5.95;;
74632;SDS011;63139;52.018;8.552;2024-02-15T06:44:05;10.48;;;6.40;;
74632;SDS011;63139;52.018;8.552;2024-02-15T06:46:34;9.32;;;6.53;;
74632;SDS011;63139;52.018;8.552;2024-02-15T06:49:01;7.38;;;6.07;;
74632;SDS011;63139;52.018;8.552;2024-02-15T06:51:31;9.25;;;6.15;;
74632;SDS011;63139;52.018;8.552;2024-02-15T06:54:00;9.43;;;6.50;;
74632;SDS011;63139;52.018;8.552;2024-02-15T06:56:29;9.13;;;6.50;;
74632;SDS011;63139;52.018;8.552;2024-02-15T06:58:59;11.63;;;5.68;;
74632;SDS011;63139;52.018;8.552;2024-02-15T07:01:27;9.73;;;6.25;;
74632;SDS011;63139;52.018;8.552;2024-02-15T07:03:55;8.25;;;5.80;;
74632;SDS011;63139;52.018;8.552;2024-02-15T07:06:25;8.48;;;6.20;;
74632;SDS011;63139;52.018;8.552;2024-02-15T07:08:54;9.25;;;7.60;;
74632;SDS011;63139;52.018;8.552;2024-02-15T07:11:23;12.77;;;6.57;;
74632;SDS011;63139;52.018;8.552;2024-02-15T07:13:51;9.00;;;6.28;;
74632;SDS011;63139;52.018;8.552;2024-02-15T07:16:23;8.10;;;6.00;;
74632;SDS011;63139;52.018;8.552;2024-02-15T07:18:51;10.05;;;6.10;;
74632;SDS011;63139;52.018;8.552;2024-02-15T07:21:20;9.10;;;5.68;;
74632;SDS011;63139;52.018;8.552;2024-02-15T07:23:52;10.15;;;5.55;;
74632;SDS011;63139;52.018;8.552;2024-02-15T07:26:20;6.13;;;5.00;;
74632;SDS011;63139;52.018;8.552;2024-02-15T07:28:51;8.43;;;5.40;;
74632;SDS011;63139;52.018;8.552;2024-02-15T07:31:20;11.68;;;5.90;;
74632;SDS011;63139;52.018;8.552;2024-02-15T07:33:50;7.22;;;5.30;;
74632;SDS011;63139;52.018;8.552;2024-02-15T07:36:19;9.25;;;5.53;;
74632;SDS011;63139;52.018;8.552;2024-02-15T07:38:48;6.28;;;5.20;;
74632;SDS011;63139;52.018;8.552;2024-02-15T07:41:16;8.60;;;5.20;;
74632;SDS011;63139;52.018;8.552;2024-02-15T07:43:46;9.25;;;5.18;;
74632;SDS011;63139;52.018;8.552;2024-02-15T07:46:14;7.20;;;4.65;;
74632;SDS011;63139;52.018;8.552;2024-02-15T07:48:42;5.88;;;4.45;;
74632;SDS011;63139;52.018;8.552;2024-02-15T07:51:14;6.93;;;4.80;;
74632;SDS011;63139;52.018;8.552;2024-02-15T07:53:43;7.00;;;4.30;;
74632;SDS011;63139;52.018;8.552;2024-02-15T07:56:11;7.18;;;4.88;;
74632;SDS011;63139;52.018;8.552;2024-02-15T07:58:40;7.05;;;4.45;;
74632;SDS011;63139;52.018;8.552;2024-02-15T08:01:08;7.55;;;4.65;;
74632;SDS011;63139;52.018;8.552;2024-02-15T08:03:36;7.10;;;4.50;;
74632;SDS011;63139;52.018;8.552;2024-02-15T08:06:09;7.43;;;4.05;;
74632;SDS011;63139;52.018;8.552;2024-02-15T08:08:40;5.90;;;4.20;;
74632;SDS011;63139;52.018;8.552;2024-02-15T08:11:08;6.40;;;4.05;;
74632;SDS011;63139;52.018;8.552;2024-02-15T08:13:44;6.40;;;3.78;;
74632;SDS011;63139;52.018;8.552;2024-02-15T08:16:15;7.13;;;4.20;;
74632;SDS011;63139;52.018;8.552;2024-02-15T08:18:43;9.68;;;3.85;;
74632;SDS011;63139;52.018;8.552;2024-02-15T08:21:13;7.00;;;3.67;;
74632;SDS011;63139;52.018;8.552;2024-02-15T08:23:42;5.60;;;3.83;;
74632;SDS011;63139;52.018;8.552;2024-02-15T08:26:10;8.50;;;3.78;;
74632;SDS011;63139;52.018;8.552;2024-02-15T08:28:38;7.22;;;4.13;;
74632;SDS011;63139;52.018;8.552;2024-02-15T08:31:06;4.97;;;3.42;;
74632;SDS011;63139;52.018;8.552;2024-02-15T08:33:34;6.85;;;4.05;;
74632;SDS011;63139;52.018;8.552;2024-02-15T08:36:06;5.47;;;3.85;;
74632;SDS011;63139;52.018;8.552;2024-02-15T08:38:37;4.95;;;3.30;;
74632;SDS011;63139;52.018;8.552;2024-02-15T08:41:06;5.18;;;3.40;;
74632;SDS011;63139;52.018;8.552;2024-02-15T08:43:37;6.10;;;3.50;;
74632;SDS011;63139;52.018;8.552;2024-02-15T08:46:06;6.50;;;3.90;;
74632;SDS011;63139;52.018;8.552;2024-02-15T08:48:34;5.25;;;3.65;;
74632;SDS011;63139;52.018;8.552;2024-02-15T08:51:02;4.35;;;3.33;;
74632;SDS011;63139;52.018;8.552;2024-02-15T08:53:32;5.55;;;3.42;;
74632;SDS011;63139;52.018;8.552;2024-02-15T08:56:00;5.90;;;3.40;;
74632;SDS011;63139;52.018;8.552;2024-02-15T08:58:29;5.95;;;3.00;;
74632;SDS011;63139;52.018;8.552;2024-02-15T09:00:57;6.80;;;3.53;;
74632;SDS011;63139;52.018;8.552;2024-02-15T09:03:25;4.50;;;3.10;;
74632;SDS011;63139;52.018;8.552;2024-02-15T09:05:53;4.72;;;3.10;;
74632;SDS011;63139;52.018;8.552;2024-02-15T09:08:21;4.55;;;3.35;;
74632;SDS011;63139;52.018;8.552;2024-02-15T09:10:49;5.13;;;3.15;;
74632;SDS011;63139;52.018;8.552;2024-02-15T09:13:18;7.53;;;3.50;;
74632;SDS011;63139;52.018;8.552;2024-02-15T09:15:48;6.20;;;3.05;;
74632;SDS011;63139;52.018;8.552;2024-02-15T09:18:16;5.65;;;3.17;;
74632;SDS011;63139;52.018;8.552;2024-02-15T09:20:46;4.68;;;2.97;;
74632;SDS011;63139;52.018;8.552;2024-02-15T09:23:15;6.40;;;3.05;;
74632;SDS011;63139;52.018;8.552;2024-02-15T09:25:43;6.28;;;3.55;;
74632;SDS011;63139;52.018;8.552;2024-02-15T09:28:11;4.63;;;3.45;;
74632;SDS011;63139;52.018;8.552;2024-02-15T09:30:40;4.57;;;3.28;;
74632;SDS011;63139;52.018;8.552;2024-02-15T09:33:09;6.15;;;3.38;;
74632;SDS011;63139;52.018;8.552;2024-02-15T09:35:37;7.88;;;2.80;;
74632;SDS011;63139;52.018;8.552;2024-02-15T09:38:05;7.00;;;2.92;;
74632;SDS011;63139;52.018;8.552;2024-02-15T09:40:35;5.13;;;2.70;;
74632;SDS011;63139;52.018;8.552;2024-02-15T09:43:03;5.85;;;3.50;;
74632;SDS011;63139;52.018;8.552;2024-02-15T09:45:31;6.53;;;2.95;;
74632;SDS011;63139;52.018;8.552;2024-02-15T09:48:02;6.75;;;2.97;;
74632;SDS011;63139;52.018;8.552;2024-02-15T09:50:35;5.95;;;2.35;;
74632;SDS011;63139;52.018;8.552;2024-02-15T09:53:06;5.88;;;2.65;;
74632;SDS011;63139;52.018;8.552;2024-02-15T09:55:34;4.70;;;2.65;;
74632;SDS011;63139;52.018;8.552;2024-02-15T09:58:03;6.47;;;3.00;;
74632;SDS011;63139;52.018;8.552;2024-02-15T10:00:31;4.45;;;2.50;;
74632;SDS011;63139;52.018;8.552;2024-02-15T10:03:02;6.07;;;2.67;;
74632;SDS011;63139;52.018;8.552;2024-02-15T10:05:32;3.45;;;2.35;;
74632;SDS011;63139;52.018;8.552;2024-02-15T10:08:02;7.07;;;2.72;;
74632;SDS011;63139;52.018;8.552;2024-02-15T10:10:31;5.00;;;2.42;;
74632;SDS011;63139;52.018;8.552;2024-02-15T10:13:00;7.63;;;2.72;;
74632;SDS011;63139;52.018;8.552;2024-02-15T10:15:29;3.50;;;2.20;;
74632;SDS011;63139;52.018;8.552;2024-02-15T10:18:00;6.50;;;2.40;;
74632;SDS011;63139;52.018;8.552;2024-02-15T10:20:31;6.20;;;2.45;;
74632;SDS011;63139;52.018;8.552;2024-02-15T10:25:48;4.25;;;2.25;;
74632;SDS011;63139;52.018;8.552;2024-02-15T10:28:20;4.07;;;2.40;;
74632;SDS011;63139;52.018;8.552;2024-02-15T10:30:50;7.75;;;3.10;;
74632;SDS011;63139;52.018;8.552;2024-02-15T10:33:20;6.38;;;2.78;;
74632;SDS011;63139;52.018;8.552;2024-02-15T10:36:04;7.32;;;2.95;;
74632;SDS011;63139;52.018;8.552;2024-02-15T10:38:35;3.30;;;2.42;;
74632;SDS011;63139;52.018;8.552;2024-02-15T10:41:06;5.18;;;2.80;;
74632;SDS011;63139;52.018;8.552;2024-02-15T10:43:35;6.25;;;2.63;;
74632;SDS011;63139;52.018;8.552;2024-02-15T10:46:04;9.77;;;3.00;;
74632;SDS011;63139;52.018;8.552;2024-02-15T10:48:36;7.60;;;2.92;;
74632;SDS011;63139;52.018;8.552;2024-02-15T10:51:07;4.20;;;2.65;;
74632;SDS011;63139;52.018;8.552;2024-02-15T10:53:40;5.72;;;2.72;;
74632;SDS011;63139;52.018;8.552;2024-02-15T10:56:17;5.38;;;3.22;;
74632;SDS011;63139;52.018;8.552;2024-02-15T10:58:50;5.70;;;3.00;;
74632;SDS011;63139;52.018;8.552;2024-02-15T11:01:21;4.38;;;2.78;;
74632;SDS011;63139;52.018;8.552;2024-02-15T11:03:52;5.63;;;2.88;;
74632;SDS011;63139;52.018;8.552;2024-02-15T11:06:26;6.45;;;3.35;;
74632;SDS011;63139;52.018;8.552;2024-02-15T11:08:57;4.63;;;2.90;;
74632;SDS011;63139;52.018;8.552;2024-02-15T11:11:26;5.85;;;3.10;;
74632;SDS011;63139;52.018;8.552;2024-02-15T11:16:53;4.32;;;2.85;;
74632;SDS011;63139;52.018;8.552;2024-02-15T11:22:13;4.57;;;2.80;;
74632;SDS011;63139;52.018;8.552;2024-02-15T11:24:46;5.15;;;2.83;;
74632;SDS011;63139;52.018;8.552;2024-02-15T11:27:25;4.57;;;2.78;;
74632;SDS011;63139;52.018;8.552;2024-02-15T11:29:55;4.47;;;2.70;;
74632;SDS011;63139;52.018;8.552;2024-02-15T11:32:35;4.72;;;2.97;;
74632;SDS011;63139;52.018;8.552;2024-02-15T11:35:06;4.30;;;2.92;;
74632;SDS011;63139;52.018;8.552;2024-02-15T11:37:55;4.07;;;2.80;;
74632;SDS011;63139;52.018;8.552;2024-02-15T11:43:48;4.72;;;3.08;;
74632;SDS011;63139;52.018;8.552;2024-02-15T11:46:22;5.38;;;2.60;;
74632;SDS011;63139;52.018;8.552;2024-02-15T11:48:52;5.22;;;2.92;;
74632;SDS011;63139;52.018;8.552;2024-02-15T11:51:26;4.65;;;2.40;;
74632;SDS011;63139;52.018;8.552;2024-02-15T11:53:58;2.65;;;2.30;;
74632;SDS011;63139;52.018;8.552;2024-02-15T11:56:34;2.75;;;2.05;;
74632;SDS011;63139;52.018;8.552;2024-02-15T11:59:19;4.15;;;2.40;;
74632;SDS011;63139;52.018;8.552;2024-02-15T12:01:55;4.18;;;2.28;;
74632;SDS011;63139;52.018;8.552;2024-02-15T12:04:41;4.38;;;2.25;;
74632;SDS011;63139;52.018;8.552;2024-02-15T12:07:27;4.50;;;2.20;;
74632;SDS011;63139;52.018;8.552;2024-02-15T12:10:25;4.07;;;2.05;;
74632;SDS011;63139;52.018;8.552;2024-02-15T12:13:12;4.07;;;2.00;;
74632;SDS011;63139;52.018;8.552;2024-02-15T12:16:02;3.17;;;1.80;;
74632;SDS011;63139;52.018;8.552;2024-02-15T12:18:48;3.00;;;1.75;;
74632;SDS011;63139;52.018;8.552;2024-02-15T12:21:20;5.85;;;1.65;;
74632;SDS011;63139;52.018;8.552;2024-02-15T12:23:52;3.85;;;1.80;;
74632;SDS011;63139;52.018;8.552;2024-02-15T12:26:20;3.03;;;1.50;;
74632;SDS011;63139;52.018;8.552;2024-02-15T12:28:51;5.15;;;1.83;;
74632;SDS011;63139;52.018;8.552;2024-02-15T12:31:21;5.75;;;1.95;;
74632;SDS011;63139;52.018;8.552;2024-02-15T12:33:59;4.95;;;2.03;;
74632;SDS011;63139;52.018;8.552;2024-02-15T12:36:29;4.50;;;1.60;;
74632;SDS011;63139;52.018;8.552;2024-02-15T12:39:00;5.30;;;2.25;;
74632;SDS011;63139;52.018;8.552;2024-02-15T12:41:30;3.10;;;1.70;;
74632;SDS011;63139;52.018;8.552;2024-02-15T12:43:59;2.92;;;1.50;;
74632;SDS011;63139;52.018;8.552;2024-02-15T12:46:27;3.78;;;1.80;;
74632;SDS011;63139;52.018;8.552;2024-02-15T12:49:12;5.07;;;2.10;;
74632;SDS011;63139;52.018;8.552;2024-02-15T12:55:12;5.43;;;1.90;;
74632;SDS011;63139;52.018;8.552;2024-02-15T12:57:42;2.97;;;1.63;;
74632;SDS011;63139;52.018;8.552;2024-02-15T13:00:17;3.85;;;1.60;;
74632;SDS011;63139;52.018;8.552;2024-02-15T13:02:47;5.57;;;1.65;;
74632;SDS011;63139;52.018;8.552;2024-02-15T13:05:16;2.42;;;1.70;;
74632;SDS011;63139;52.018;8.552;2024-02-15T13:07:46;2.78;;;1.60;;
74632;SDS011;63139;52.018;8.552;2024-02-15T13:10:14;3.67;;;1.60;;
74632;SDS011;63139;52.018;8.552;2024-02-15T13:12:43;2.20;;;1.40;;
74632;SDS011;63139;52.018;8.552;2024-02-15T13:15:12;3.63;;;1.38;;
74632;SDS011;63139;52.018;8.552;2024-02-15T13:17:44;2.97;;;1.60;;
74632;SDS011;63139;52.018;8.552;2024-02-15T13:20:13;5.15;;;1.70;;
74632;SDS011;63139;52.018;8.552;2024-02-15T13:22:41;3.67;;;1.90;;
74632;SDS011;63139;52.018;8.552;2024-02-15T13:25:10;5.55;;;1.77;;
74632;SDS011;63139;52.018;8.552;2024-02-15T13:27:38;5.20;;;1.92;;
74632;SDS011;63139;52.018;8.552;2024-02-15T13:30:06;5.53;;;1.60;;
74632;SDS011;63139;52.018;8.552;2024-02-15T13:32:36;6.32;;;2.00;;
74632;SDS011;63139;52.018;8.552;2024-02-15T13:35:07;5.45;;;1.77;;
74632;SDS011;63139;52.018;8.552;2024-02-15T13:37:40;4.53;;;1.80;;
74632;SDS011;63139;52.018;8.552;2024-02-15T13:40:10;3.33;;;1.80;;
74632;SDS011;63139;52.018;8.552;2024-02-15T13:42:43;4.15;;;1.90;;
74632;SDS011;63139;52.018;8.552;2024-02-15T13:45:16;4.30;;;1.90;;
74632;SDS011;63139;52.018;8.552;2024-02-15T13:47:44;4.85;;;1.88;;
74632;SDS011;63139;52.018;8.552;2024-02-15T13:50:19;4.20;;;2.03;;
74632;SDS011;63139;52.018;8.552;2024-02-15T13:52:47;2.53;;;1.55;;
74632;SDS011;63139;52.018;8.552;2024-02-15T13:55:15;2.75;;;1.50;;
74632;SDS011;63139;52.018;8.552;2024-02-15T13:57:44;3.63;;;1.80;;
74632;SDS011;63139;52.018;8.552;2024-02-15T14:00:14;3.10;;;1.40;;
74632;SDS011;63139;52.018;8.552;2024-02-15T14:02:48;2.80;;;1.50;;
74632;SDS011;63139;52.018;8.552;2024-02-15T14:05:17;5.53;;;1.80;;
74632;SDS011;63139;52.018;8.552;2024-02-15T14:07:47;6.82;;;1.80;;
74632;SDS011;63139;52.018;8.552;2024-02-15T14:10:16;2.60;;;1.60;;
74632;SDS011;63139;52.018;8.552;2024-02-15T14:12:45;3.78;;;1.77;;
74632;SDS011;63139;52.018;8.552;2024-02-15T14:15:14;3.72;;;1.60;;
74632;SDS011;63139;52.018;8.552;2024-02-15T14:17:43;2.83;;;1.45;;
74632;SDS011;63139;52.018;8.552;2024-02-15T14:20:12;4.25;;;1.70;;
74632;SDS011;63139;52.018;8.552;2024-02-15T14:22:43;4.47;;;1.70;;
74632;SDS011;63139;52.018;8.552;2024-02-15T14:25:12;4.05;;;1.63;;
74632;SDS011;63139;52.018;8.552;2024-02-15T14:27:40;5.93;;;2.00;;
74632;SDS011;63139;52.018;8.552;2024-02-15T14:30:09;4.00;;;1.67;;
74632;SDS011;63139;52.018;8.552;2024-02-15T14:32:54;5.20;;;1.98;;
74632;SDS011;63139;52.018;8.552;2024-02-15T14:35:31;2.72;;;1.70;;
74632;SDS011;63139;52.018;8.552;2024-02-15T14:38:03;4.05;;;1.50;;
74632;SDS011;63139;52.018;8.552;2024-02-15T14:40:33;4.53;;;1.75;;
74632;SDS011;63139;52.018;8.552;2024-02-15T14:43:04;2.65;;;1.42;;
74632;SDS011;63139;52.018;8.552;2024-02-15T14:45:34;2.85;;;1.67;;
74632;SDS011;63139;52.018;8.552;2024-02-15T14:48:03;1.40;;;1.30;;
74632;SDS011;63139;52.018;8.552;2024-02-15T14:50:32;4.03;;;1.60;;
74632;SDS011;63139;52.018;8.552;2024-02-15T14:53:02;3.35;;;1.33;;
74632;SDS011;63139;52.018;8.552;2024-02-15T14:55:31;4.38;;;1.33;;
74632;SDS011;63139;52.018;8.552;2024-02-15T14:58:00;3.28;;;1.50;;
74632;SDS011;63139;52.018;8.552;2024-02-15T15:00:30;4.93;;;1.70;;
74632;SDS011;63139;52.018;8.552;2024-02-15T15:03:01;3.47;;;1.30;;
74632;SDS011;63139;52.018;8.552;2024-02-15T15:05:30;3.85;;;1.30;;
74632;SDS011;63139;52.018;8.552;2024-02-15T15:08:17;2.85;;;1.40;;